Time;durP1;ratioP1;P1;durP2;ratioP2;P2;SDS_P1;SDS_P2;PMS_P1;PMS_P2;Temp;Humidity;BMP_temperature;BMP_pressure;BME280_temperature;BME280_humidity;BME280_pressure;Samples;Min_cycle;Max_cycle;Signal;HPM_P1;HPM_P2
2023/11/21 00:00:35;;;;;;;8.67;2.73;;;10.40;99.90;;;;;;5025060;28;20520;-74
2023/11/21 00:03:23;;;;;;;6.90;2.30;;;10.40;99.90;;;;;;5025589;28;20409;-74
2023/11/21 00:06:09;;;;;;;6.23;2.27;;;10.40;99.90;;;;;;5044837;28;20456;-74
2023/11/21 00:08:56;;;;;;;3.90;1.30;;;10.40;99.90;;;;;;5042675;28;20461;-74
2023/11/21 00:11:41;;;;;;;4.70;1.80;;;10.40;99.90;;;;;;5042003;28;20401;-74
2023/11/21 00:14:27;;;;;;;5.40;2.13;;;10.30;99.90;;;;;;5051285;28;20422;-74
2023/11/21 00:17:13;;;;;;;4.70;1.83;;;10.30;99.90;;;;;;5036110;28;20473;-74
2023/11/21 00:19:58;;;;;;;5.13;1.57;;;10.40;99.90;;;;;;5033383;28;20437;-75
2023/11/21 00:23:10;;;;;;;5.47;1.60;;;10.40;99.90;;;;;;5043806;23;20490;-89
2023/11/21 00:25:59;;;;;;;5.30;2.10;;;10.40;99.90;;;;;;5016324;28;20464;-89
2023/11/21 00:29:24;;;;;;;8.73;2.60;;;10.40;99.90;;;;;;5038201;28;20463;-87
2023/11/21 00:32:18;;;;;;;9.67;1.87;;;10.40;99.90;;;;;;5045084;28;20432;-88
2023/11/21 00:35:35;;;;;;;4.53;1.93;;;10.40;99.90;;;;;;5041927;28;20464;-88
2023/11/21 00:38:55;;;;;;;5.37;2.27;;;10.40;99.90;;;;;;5047703;28;20831;-88
2023/11/21 00:41:49;;;;;;;7.03;2.30;;;10.40;99.90;;;;;;5042395;28;20489;-88
2023/11/21 00:44:35;;;;;;;9.23;2.00;;;10.40;99.90;;;;;;5043622;28;20430;-88
2023/11/21 00:47:20;;;;;;;6.10;2.00;;;10.40;99.90;;;;;;5047815;28;20574;-87
2023/11/21 00:50:09;;;;;;;6.27;2.73;;;10.30;99.90;;;;;;5049481;28;20549;-88
2023/11/21 00:53:09;;;;;;;10.10;2.77;;;10.30;99.90;;;;;;5034486;28;20602;-87
2023/11/21 00:55:59;;;;;;;10.20;2.70;;;10.30;99.90;;;;;;5041668;28;20464;-87
2023/11/21 00:58:49;;;;;;;6.80;2.80;;;10.30;99.90;;;;;;5050696;28;20501;-86
2023/11/21 01:02:05;;;;;;;4.60;2.60;;;10.30;99.90;;;;;;5062729;28;20438;-86
2023/11/21 01:05:13;;;;;;;6.20;2.70;;;10.30;99.90;;;;;;5031993;28;20512;-87
2023/11/21 01:11:51;;;;;;;4.23;2.20;;;10.20;99.90;;;;;;5032095;28;20442;-88
2023/11/21 01:14:39;;;;;;;6.87;2.33;;;10.20;99.90;;;;;;5046741;28;20976;-87
2023/11/21 01:18:29;;;;;;;5.00;2.10;;;10.20;99.90;;;;;;5035552;28;20695;-87
2023/11/21 01:22:25;;;;;;;;;;;;;;;;;;;;;
2023/11/21 01:25:53;;;;;;;8.20;2.10;;;10.30;99.90;;;;;;4978388;28;20430;-88
2023/11/21 01:29:53;;;;;;;7.93;2.30;;;10.30;99.90;;;;;;5031681;28;20451;-88
2023/11/21 01:32:45;;;;;;;4.13;2.03;;;10.40;99.90;;;;;;4968403;28;20453;-88
2023/11/21 01:36:22;;;;;;;4.63;2.13;;;10.40;99.90;;;;;;4970649;28;20462;-88
2023/11/21 01:39:15;;;;;;;6.37;2.60;;;10.40;99.90;;;;;;4972264;28;20505;-88
2023/11/21 01:42:01;;;;;;;5.30;2.23;;;10.40;99.90;;;;;;4969542;28;20438;-88
2023/11/21 01:44:52;;;;;;;6.20;2.10;;;10.50;99.90;;;;;;5033953;28;20434;-88
2023/11/21 01:51:21;;;;;;;3.13;1.60;;;10.40;99.90;;;;;;4989927;28;20435;-88
2023/11/21 01:54:09;;;;;;;8.40;2.03;;;10.40;99.90;;;;;;5036634;28;20487;-88
2023/11/21 01:56:54;;;;;;;4.30;2.10;;;10.40;99.90;;;;;;5032255;28;20475;-87
2023/11/21 02:00:02;;;;;;;5.13;1.97;;;10.40;99.90;;;;;;5048214;28;20629;-88
2023/11/21 02:02:49;;;;;;;5.30;2.60;;;10.40;99.90;;;;;;5041305;28;20429;-88
2023/11/21 02:05:52;;;;;;;11.13;2.40;;;10.40;99.90;;;;;;5030193;28;20989;-88
2023/11/21 02:12:59;;;;;;;6.37;2.10;;;10.40;99.90;;;;;;5026241;28;20501;-88
2023/11/21 02:15:49;;;;;;;5.00;2.20;;;10.50;99.90;;;;;;5023349;28;20528;-88
2023/11/21 02:29:39;;;;;;;6.60;2.90;;;10.40;99.90;;;;;;5031543;28;20439;-87
2023/11/21 02:33:03;;;;;;;4.90;2.30;;;10.40;99.90;;;;;;5030617;28;20467;-88
2023/11/21 02:35:53;;;;;;;8.73;2.30;;;10.40;99.90;;;;;;5004603;28;20478;-88
2023/11/21 02:39:05;;;;;;;5.27;2.50;;;10.40;99.90;;;;;;5037733;28;20471;-88
2023/11/21 02:45:56;;;;;;;7.20;2.60;;;10.40;99.90;;;;;;5041523;28;20457;-87
2023/11/21 02:52:42;;;;;;;10.10;2.77;;;10.30;99.90;;;;;;5008826;28;20455;-88
2023/11/21 03:02:25;;;;;;;7.47;2.70;;;10.40;99.90;;;;;;5034547;28;20447;-89
2023/11/21 03:05:11;;;;;;;6.00;3.30;;;10.40;99.90;;;;;;5052196;28;20434;-87
2023/11/21 03:07:56;;;;;;;4.47;2.30;;;10.50;99.90;;;;;;5052321;28;20433;-87
2023/11/21 03:10:42;;;;;;;4.80;2.20;;;10.50;99.90;;;;;;5050741;28;20423;-87
2023/11/21 03:14:36;;;;;;;5.07;2.70;;;10.50;99.90;;;;;;5045036;28;20492;-88
2023/11/21 03:17:51;;;;;;;8.33;2.80;;;10.50;99.90;;;;;;5037055;28;20524;-88
2023/11/21 03:21:19;;;;;;;9.43;3.17;;;10.50;99.90;;;;;;5031896;28;20459;-88
2023/11/21 03:24:06;;;;;;;5.73;2.73;;;10.50;99.90;;;;;;5026843;28;20434;-87
2023/11/21 03:26:53;;;;;;;4.60;2.93;;;10.50;99.90;;;;;;5044112;28;20512;-88
2023/11/21 03:29:40;;;;;;;7.30;3.43;;;10.50;99.90;;;;;;5052883;28;20421;-85
2023/11/21 03:36:18;;;;;;;9.33;4.43;;;10.50;99.90;;;;;;4943770;28;21115;-87
2023/11/21 03:39:03;;;;;;;7.53;3.60;;;10.40;99.90;;;;;;5016534;28;21153;-87
2023/11/21 03:41:51;;;;;;;5.37;3.43;;;10.40;99.90;;;;;;5050250;28;20434;-88
2023/11/21 03:48:04;;;;;;;7.40;3.30;;;10.50;99.90;;;;;;4953537;28;20511;-87
2023/11/21 03:51:32;;;;;;;3.40;2.77;;;10.50;99.90;;;;;;4975062;28;20500;-87
2023/11/21 03:54:32;;;;;;;7.87;2.87;;;10.40;99.90;;;;;;5049743;28;20672;-87
2023/11/21 03:57:18;;;;;;;8.00;3.00;;;10.40;99.90;;;;;;5054931;28;20524;-87
2023/11/21 04:03:47;;;;;;;3.20;2.60;;;10.40;99.90;;;;;;5042774;28;20955;-89
2023/11/21 04:12:50;;;;;;;4.43;2.97;;;10.30;99.90;;;;;;5029822;28;20463;-88
2023/11/21 04:19:50;;;;;;;9.40;4.30;;;10.20;99.90;;;;;;4953553;28;20518;-87
2023/11/21 04:22:38;;;;;;;5.03;3.63;;;10.20;99.90;;;;;;4997125;28;20433;-87
2023/11/21 04:25:25;;;;;;;6.10;4.23;;;10.20;99.90;;;;;;5043097;28;20474;-87
2023/11/21 04:28:38;;;;;;;8.27;4.10;;;10.20;99.90;;;;;;5027386;28;21056;-87
2023/11/21 04:31:24;;;;;;;7.97;4.37;;;10.20;99.90;;;;;;5035419;28;20431;-87
2023/11/21 04:34:09;;;;;;;6.33;4.03;;;10.30;99.90;;;;;;5035976;28;20436;-87
2023/11/21 04:40:30;;;;;;;6.53;4.47;;;10.40;99.90;;;;;;5020736;28;21095;-87
2023/11/21 04:47:14;;;;;;;5.07;3.73;;;10.30;99.90;;;;;;5009527;28;20494;-88
2023/11/21 04:50:00;;;;;;;5.93;4.70;;;10.30;99.90;;;;;;5036173;28;20427;-87
2023/11/21 04:52:46;;;;;;;7.80;4.67;;;10.40;99.90;;;;;;5030695;28;20428;-87
2023/11/21 04:55:42;;;;;;;10.47;3.90;;;10.40;99.90;;;;;;5029183;28;20432;-88
2023/11/21 04:58:28;;;;;;;6.20;4.60;;;10.40;99.90;;;;;;5037699;28;20419;-87
2023/11/21 05:04:24;;;;;;;6.23;4.37;;;10.50;99.90;;;;;;5038462;28;20605;-89
2023/11/21 05:07:48;;;;;;;6.47;4.90;;;10.50;99.90;;;;;;5037628;28;20457;-89
2023/11/21 05:11:23;;;;;;;5.87;4.30;;;10.50;99.90;;;;;;5018542;28;20424;-90
2023/11/21 05:14:24;;;;;;;6.20;5.20;;;10.50;99.90;;;;;;5030844;28;20426;-90
2023/11/21 05:18:14;;;;;;;5.67;4.80;;;10.50;99.90;;;;;;5029780;28;20445;-89
2023/11/21 05:22:05;;;;;;;6.43;4.70;;;10.50;99.90;;;;;;5040300;28;21083;-90
2023/11/21 05:25:09;;;;;;;13.60;5.57;;;10.40;99.90;;;;;;4975599;28;20471;-89
2023/11/21 05:28:17;;;;;;;10.83;4.27;;;10.40;99.90;;;;;;5038166;28;20473;-89
2023/11/21 05:31:02;;;;;;;5.07;4.17;;;10.40;99.90;;;;;;5033057;28;20439;-90
2023/11/21 05:33:48;;;;;;;4.97;4.17;;;10.50;99.90;;;;;;5034064;28;20405;-90
2023/11/21 05:36:34;;;;;;;8.77;3.97;;;10.40;99.90;;;;;;5021716;28;20447;-89
2023/11/21 05:39:20;;;;;;;5.93;4.53;;;10.50;99.90;;;;;;5034127;28;20485;-89
2023/11/21 05:49:21;;;;;;;11.80;4.73;;;10.40;99.90;;;;;;4996608;28;20448;-89
2023/11/21 05:52:07;;;;;;;11.43;4.80;;;10.40;99.90;;;;;;5027806;28;20432;-89
2023/11/21 05:54:53;;;;;;;12.20;5.23;;;10.40;99.90;;;;;;5036652;28;20441;-89
2023/11/21 05:57:40;;;;;;;9.77;4.63;;;10.40;99.90;;;;;;5028638;28;20472;-90
2023/11/21 06:03:30;;;;;;;6.90;5.10;;;10.50;99.90;;;;;;5041447;28;20438;-90
2023/11/21 06:06:19;;;;;;;5.83;5.10;;;10.50;99.90;;;;;;5032163;28;20542;-89
2023/11/21 06:09:40;;;;;;;6.60;5.10;;;10.50;99.90;;;;;;5043485;28;20454;-89
2023/11/21 06:12:27;;;;;;;11.57;5.47;;;10.50;99.90;;;;;;5027896;28;20556;-90
2023/11/21 06:15:14;;;;;;;7.87;5.97;;;10.50;99.90;;;;;;5035291;28;20578;-90
2023/11/21 06:18:00;;;;;;;11.33;5.43;;;10.60;99.90;;;;;;5037018;28;20502;-90
2023/11/21 06:20:45;;;;;;;7.27;6.20;;;10.60;99.90;;;;;;5025702;28;21134;-89
2023/11/21 06:23:32;;;;;;;7.80;7.00;;;10.60;99.90;;;;;;5026838;28;20924;-90
2023/11/21 06:26:18;;;;;;;12.70;7.50;;;10.50;99.90;;;;;;5037275;28;20549;-89
2023/11/21 06:29:04;;;;;;;10.23;6.57;;;10.50;99.90;;;;;;5032350;28;20546;-88
2023/11/21 06:32:41;;;;;;;6.13;5.53;;;10.60;99.90;;;;;;5030896;28;20532;-87
2023/11/21 06:35:52;;;;;;;10.70;6.17;;;10.50;99.90;;;;;;5035590;28;20455;-88
2023/11/21 06:39:10;;;;;;;12.70;6.77;;;10.50;99.90;;;;;;5029782;28;20458;-88
2023/11/21 06:45:54;;;;;;;;;;;;;;;;;;;;;
2023/11/21 06:48:41;;;;;;;9.53;7.60;;;10.50;99.90;;;;;;4986589;28;20447;-89
2023/11/21 06:51:27;;;;;;;9.13;7.93;;;10.50;99.90;;;;;;5031846;28;20445;-90
2023/11/21 06:54:17;;;;;;;18.97;8.60;;;10.40;99.90;;;;;;5026512;28;20453;-89
2023/11/21 06:57:03;;;;;;;10.23;8.93;;;10.50;99.90;;;;;;5028571;28;20606;-89
2023/11/21 07:00:19;;;;;;;15.87;7.83;;;10.50;99.90;;;;;;5037964;28;20471;-92
2023/11/21 07:03:13;;;;;;;9.53;8.50;;;10.50;99.90;;;;;;5023309;28;20582;-90
2023/11/21 07:05:59;;;;;;;10.23;7.83;;;10.60;99.90;;;;;;5026639;28;21065;-90
2023/11/21 07:08:45;;;;;;;9.90;7.73;;;10.60;99.90;;;;;;5030756;28;20523;-90
2023/11/21 07:11:32;;;;;;;10.60;8.30;;;10.60;99.90;;;;;;5034616;28;20585;-90
2023/11/21 07:14:19;;;;;;;12.13;8.77;;;10.60;99.90;;;;;;5036030;28;21015;-90
2023/11/21 07:17:05;;;;;;;11.00;8.13;;;10.60;99.90;;;;;;5034379;28;20466;-90
2023/11/21 07:19:52;;;;;;;22.37;9.90;;;10.70;99.90;;;;;;5038020;28;20477;-90
2023/11/21 07:22:44;;;;;;;10.27;9.17;;;10.70;99.90;;;;;;5035835;28;20447;-90
2023/11/21 07:25:31;;;;;;;12.90;9.27;;;10.70;99.90;;;;;;5041721;28;21014;-90
2023/11/21 07:28:18;;;;;;;13.63;9.07;;;10.70;99.90;;;;;;5039390;28;20467;-89
2023/11/21 07:31:04;;;;;;;12.70;10.50;;;10.60;99.90;;;;;;5034958;28;20515;-89
2023/11/21 07:33:50;;;;;;;12.90;10.60;;;10.60;99.90;;;;;;5040842;28;20522;-90
2023/11/21 07:36:36;;;;;;;13.00;8.50;;;10.70;99.90;;;;;;5039787;28;20478;-90
2023/11/21 07:42:57;;;;;;;5.33;4.50;;;10.70;99.90;;;;;;4997664;28;20470;-90
2023/11/21 07:45:44;;;;;;;5.83;4.27;;;10.80;99.90;;;;;;5039902;28;21039;-90
2023/11/21 07:48:30;;;;;;;5.13;3.53;;;10.80;99.90;;;;;;5028848;28;20451;-90
2023/11/21 07:51:15;;;;;;;4.50;3.17;;;10.80;99.90;;;;;;5041500;28;20515;-90
2023/11/21 07:54:01;;;;;;;7.73;3.97;;;10.80;99.90;;;;;;5038063;28;20447;-90
2023/11/21 07:56:47;;;;;;;3.43;2.53;;;10.70;99.90;;;;;;5042370;28;20482;-90
2023/11/21 07:59:33;;;;;;;4.10;2.63;;;10.70;99.90;;;;;;5033022;28;20557;-89
2023/11/21 08:02:25;;;;;;;3.50;2.40;;;10.70;99.90;;;;;;5030222;28;20451;-90
2023/11/21 08:05:11;;;;;;;2.87;2.23;;;10.70;99.90;;;;;;5037864;28;20464;-90
2023/11/21 08:07:58;;;;;;;2.60;1.60;;;10.70;99.90;;;;;;5034052;28;21043;-89
2023/11/21 08:11:05;;;;;;;3.37;2.50;;;10.70;99.90;;;;;;5033603;28;20542;-90
2023/11/21 08:13:50;;;;;;;4.80;3.27;;;10.80;99.90;;;;;;5025123;28;20502;-90
2023/11/21 08:16:48;;;;;;;2.70;2.13;;;10.80;99.90;;;;;;5030714;28;20469;-90
2023/11/21 08:19:35;;;;;;;5.47;3.27;;;10.80;99.90;;;;;;5033355;28;20890;-90
2023/11/21 08:22:23;;;;;;;3.70;2.27;;;10.80;99.90;;;;;;5031339;28;20555;-90
2023/11/21 08:25:09;;;;;;;6.23;3.13;;;10.80;99.90;;;;;;5040603;28;20465;-90
2023/11/21 08:27:54;;;;;;;2.73;1.93;;;10.80;99.90;;;;;;5044114;28;20450;-90
2023/11/21 08:30:41;;;;;;;2.33;1.47;;;10.80;99.90;;;;;;5061587;28;20439;-91
2023/11/21 08:33:27;;;;;;;4.00;2.00;;;10.80;99.90;;;;;;5048039;28;20514;-90
2023/11/21 08:36:15;;;;;;;3.80;1.70;;;10.90;99.90;;;;;;5037429;28;20854;-89
2023/11/21 08:39:01;;;;;;;3.10;2.43;;;10.80;99.90;;;;;;5037316;28;20447;-91
2023/11/21 08:41:46;;;;;;;5.70;4.00;;;10.80;99.90;;;;;;5042056;28;20615;-89
2023/11/21 08:44:32;;;;;;;7.67;4.57;;;10.80;99.90;;;;;;5039514;28;20446;-90
2023/11/21 08:47:18;;;;;;;9.03;4.00;;;10.80;99.90;;;;;;5033244;28;20489;-90
2023/11/21 08:50:06;;;;;;;4.53;3.67;;;10.80;99.90;;;;;;5047614;28;20508;-89
2023/11/21 08:52:53;;;;;;;3.93;3.03;;;10.80;99.90;;;;;;5028031;28;20459;-90
2023/11/21 08:55:38;;;;;;;7.37;4.97;;;10.80;99.90;;;;;;5036827;28;20534;-90
2023/11/21 08:58:33;;;;;;;6.40;4.40;;;10.90;99.90;;;;;;5040993;28;20450;-91
2023/11/21 09:01:18;;;;;;;5.30;3.90;;;10.90;99.90;;;;;;5040692;28;20587;-89
2023/11/21 09:04:05;;;;;;;5.40;3.53;;;11.00;99.90;;;;;;5034672;28;20452;-89
2023/11/21 09:06:50;;;;;;;6.40;5.70;;;11.00;99.90;;;;;;5031553;28;20471;-89
2023/11/21 09:09:37;;;;;;;4.43;2.93;;;11.10;99.90;;;;;;5034391;28;20558;-90
2023/11/21 09:12:24;;;;;;;3.80;2.97;;;11.10;99.90;;;;;;5038463;28;20450;-90
2023/11/21 09:15:11;;;;;;;4.63;3.40;;;11.10;99.90;;;;;;5038546;28;20444;-90
2023/11/21 09:17:57;;;;;;;5.03;3.57;;;11.10;99.90;;;;;;5029710;28;20451;-90
2023/11/21 09:20:43;;;;;;;10.60;4.50;;;11.20;99.90;;;;;;5034687;28;20522;-90
2023/11/21 09:23:47;;;;;;;5.53;4.00;;;11.20;99.90;;;;;;5031502;28;20474;-90
2023/11/21 09:26:47;;;;;;;4.50;2.93;;;11.20;99.90;;;;;;5027118;28;20459;-89
2023/11/21 09:29:33;;;;;;;4.63;3.80;;;11.20;99.90;;;;;;5033406;28;20459;-89
2023/11/21 09:32:19;;;;;;;4.60;3.17;;;11.20;99.90;;;;;;5034080;28;20463;-90
2023/11/21 09:35:05;;;;;;;5.43;4.03;;;11.20;99.90;;;;;;5041939;28;20435;-90
2023/11/21 09:37:52;;;;;;;6.17;3.90;;;11.20;99.90;;;;;;5036257;28;20990;-91
2023/11/21 09:40:38;;;;;;;8.37;4.30;;;11.20;99.90;;;;;;5034523;28;20848;-89
2023/11/21 09:43:28;;;;;;;6.07;4.03;;;11.20;99.90;;;;;;5041040;28;20505;-90
2023/11/21 09:46:19;;;;;;;5.27;3.57;;;11.20;99.90;;;;;;5032947;28;20465;-90
2023/11/21 09:49:08;;;;;;;6.10;3.47;;;11.20;99.90;;;;;;5029865;28;20451;-90
2023/11/21 09:51:57;;;;;;;6.27;4.27;;;11.10;99.90;;;;;;5033764;28;20459;-90
2023/11/21 09:54:42;;;;;;;5.53;3.97;;;11.10;99.90;;;;;;5032468;28;20479;-90
2023/11/21 09:57:50;;;;;;;6.63;4.33;;;11.10;99.90;;;;;;5030269;28;20495;-90
2023/11/21 10:00:37;;;;;;;4.70;3.90;;;11.00;99.90;;;;;;5032193;28;20559;-90
2023/11/21 10:03:23;;;;;;;6.70;5.03;;;11.10;99.90;;;;;;5038815;28;20442;-89
2023/11/21 10:09:16;;;;;;;6.90;4.47;;;11.10;99.90;;;;;;5040781;28;20456;-89
2023/11/21 10:12:03;;;;;;;5.50;3.63;;;11.10;99.90;;;;;;5028108;28;20444;-89
2023/11/21 10:14:52;;;;;;;5.60;4.20;;;11.10;99.90;;;;;;5034967;28;20421;-90
2023/11/21 10:17:43;;;;;;;4.67;3.43;;;11.10;99.90;;;;;;5038539;28;20536;-90
2023/11/21 10:20:29;;;;;;;5.03;3.80;;;11.10;99.90;;;;;;5033844;28;20484;-90
2023/11/21 10:23:16;;;;;;;7.90;5.17;;;11.20;99.90;;;;;;5035308;28;20451;-90
2023/11/21 10:26:23;;;;;;;8.63;5.17;;;11.10;99.90;;;;;;5034936;28;20475;-89
2023/11/21 10:29:12;;;;;;;6.13;4.60;;;11.20;99.90;;;;;;5034775;28;20446;-89
2023/11/21 10:31:58;;;;;;;7.70;5.63;;;11.10;99.90;;;;;;5031280;28;20445;-90
2023/11/21 10:34:57;;;;;;;7.97;5.40;;;11.00;99.90;;;;;;5035537;28;20431;-90
2023/11/21 10:37:43;;;;;;;8.57;5.10;;;11.10;99.90;;;;;;5032124;28;20518;-90
2023/11/21 10:40:30;;;;;;;8.70;5.70;;;11.10;99.90;;;;;;5041451;28;20479;-89
2023/11/21 10:43:16;;;;;;;7.17;4.87;;;11.10;99.90;;;;;;5031783;28;20442;-90
2023/11/21 10:46:02;;;;;;;5.73;4.83;;;11.10;99.90;;;;;;5028681;28;20466;-90
2023/11/21 10:48:54;;;;;;;7.83;5.70;;;11.20;99.90;;;;;;5041909;28;20422;-89
2023/11/21 10:51:45;;;;;;;4.53;4.13;;;11.10;99.90;;;;;;5033902;28;20436;-90
2023/11/21 10:57:48;;;;;;;4.33;3.60;;;11.20;99.90;;;;;;5025837;28;20472;-89
2023/11/21 11:00:34;;;;;;;6.13;4.07;;;11.20;99.90;;;;;;5052405;28;20441;-90
2023/11/21 11:03:20;;;;;;;5.53;4.23;;;11.20;99.90;;;;;;5041593;28;20470;-89
2023/11/21 11:06:11;;;;;;;5.97;3.30;;;11.30;99.90;;;;;;5039331;28;20597;-88
2023/11/21 11:08:58;;;;;;;11.60;3.10;;;11.30;99.90;;;;;;5031149;28;20498;-88
2023/11/21 11:11:44;;;;;;;4.70;2.73;;;11.40;99.90;;;;;;5029552;28;20516;-88
2023/11/21 11:14:32;;;;;;;2.90;2.50;;;11.40;99.90;;;;;;5036323;28;20543;-88
2023/11/21 11:17:20;;;;;;;3.00;2.27;;;11.50;99.90;;;;;;5035211;28;20455;-88
2023/11/21 11:20:10;;;;;;;4.30;2.50;;;11.50;99.90;;;;;;5042601;28;20539;-89
2023/11/21 11:23:11;;;;;;;3.57;2.23;;;11.50;99.90;;;;;;5038615;28;20466;-88
2023/11/21 11:26:10;;;;;;;8.17;2.50;;;11.50;99.90;;;;;;5026775;28;20840;-89
2023/11/21 11:29:06;;;;;;;4.00;2.83;;;11.50;99.90;;;;;;5035675;28;20976;-88
2023/11/21 11:32:05;;;;;;;3.97;2.67;;;11.60;99.90;;;;;;5040021;28;21007;-89
2023/11/21 11:35:00;;;;;;;3.10;2.17;;;11.60;99.90;;;;;;5039458;28;20845;-89
2023/11/21 11:37:46;;;;;;;3.00;2.40;;;11.60;99.90;;;;;;5034154;28;20456;-89
2023/11/21 11:40:41;;;;;;;3.43;2.50;;;11.50;99.90;;;;;;5036625;28;20953;-89
2023/11/21 11:43:30;;;;;;;5.27;2.53;;;11.50;99.90;;;;;;5036084;28;20419;-88
2023/11/21 11:46:16;;;;;;;2.90;2.10;;;11.50;99.90;;;;;;5034550;28;20447;-88
2023/11/21 11:49:04;;;;;;;4.40;2.60;;;11.50;99.90;;;;;;5025426;28;21000;-89
2023/11/21 11:52:12;;;;;;;8.30;2.50;;;11.50;99.90;;;;;;5031747;28;20440;-88
2023/11/21 11:54:58;;;;;;;4.67;2.77;;;11.50;99.90;;;;;;5030497;28;20470;-89
2023/11/21 11:57:49;;;;;;;3.73;2.50;;;11.50;99.90;;;;;;5034974;28;20493;-89
2023/11/21 12:00:39;;;;;;;4.27;1.83;;;11.60;99.90;;;;;;5033017;28;20501;-89
2023/11/21 12:03:25;;;;;;;3.13;1.83;;;11.60;99.90;;;;;;5039492;28;20486;-89
2023/11/21 12:06:12;;;;;;;4.60;2.80;;;11.70;99.90;;;;;;5034079;28;20542;-88
2023/11/21 12:09:04;;;;;;;3.60;2.20;;;11.70;99.90;;;;;;5042314;28;20486;-89
2023/11/21 12:11:51;;;;;;;3.37;2.00;;;11.70;99.90;;;;;;5043673;28;21016;-89
2023/11/21 12:14:42;;;;;;;6.37;2.60;;;11.60;99.90;;;;;;5034824;28;20513;-89
2023/11/21 12:17:29;;;;;;;3.50;2.27;;;11.60;99.90;;;;;;5028651;28;20478;-88
2023/11/21 12:20:17;;;;;;;3.37;2.37;;;11.50;99.90;;;;;;5029898;28;20794;-88
2023/11/21 12:23:03;;;;;;;6.03;2.70;;;11.50;99.90;;;;;;5035605;28;20426;-89
2023/11/21 12:25:49;;;;;;;3.50;2.27;;;11.70;99.90;;;;;;5032870;28;20474;-89
2023/11/21 12:29:14;;;;;;;5.70;2.37;;;12.10;99.90;;;;;;5046421;28;20506;-90
2023/11/21 12:32:02;;;;;;;5.90;2.07;;;12.60;99.90;;;;;;5060237;28;20436;-90
2023/11/21 12:34:50;;;;;;;2.77;1.77;;;12.90;99.90;;;;;;5038423;28;20451;-89
2023/11/21 12:37:49;;;;;;;6.20;2.13;;;13.20;99.90;;;;;;5038199;28;20467;-90
2023/11/21 12:40:35;;;;;;;6.10;2.00;;;13.50;99.90;;;;;;5048339;28;20490;-89
2023/11/21 12:43:21;;;;;;;8.27;2.43;;;14.30;99.90;;;;;;5038135;28;20463;-87
2023/11/21 12:46:09;;;;;;;4.90;2.07;;;14.80;99.90;;;;;;5040090;28;20498;-89
2023/11/21 12:48:56;;;;;;;2.40;1.70;;;15.00;99.90;;;;;;5040078;28;20528;-88
2023/11/21 12:51:44;;;;;;;3.70;2.00;;;15.00;99.90;;;;;;5034973;28;20455;-89
2023/11/21 12:54:30;;;;;;;2.80;1.70;;;15.10;99.90;;;;;;5038082;28;20452;-89
2023/11/21 12:57:15;;;;;;;4.47;2.37;;;15.20;99.90;;;;;;5034975;28;20468;-89
2023/11/21 13:00:10;;;;;;;4.00;2.33;;;15.10;99.90;;;;;;5037377;28;20425;-89
2023/11/21 13:02:58;;;;;;;7.53;4.03;;;14.70;99.90;;;;;;5034973;28;20509;-89
2023/11/21 13:05:45;;;;;;;3.87;2.10;;;14.20;99.90;;;;;;5038116;28;20471;-88
2023/11/21 13:08:32;;;;;;;6.20;2.30;;;13.90;99.90;;;;;;5036169;28;20514;-89
2023/11/21 13:11:19;;;;;;;9.23;5.67;;;13.80;99.90;;;;;;5042074;28;20439;-89
2023/11/21 13:14:05;;;;;;;6.30;3.50;;;13.50;99.90;;;;;;5049455;28;21023;-88
2023/11/21 13:16:52;;;;;;;7.63;3.90;;;13.20;99.90;;;;;;5035592;28;20550;-89
2023/11/21 13:19:38;;;;;;;7.67;5.60;;;13.10;99.90;;;;;;5038151;28;20975;-88
2023/11/21 13:22:57;;;;;;;4.10;3.03;;;13.00;99.90;;;;;;5038010;28;20446;-89
2023/11/21 13:25:45;;;;;;;5.20;3.20;;;12.80;99.90;;;;;;5039541;28;21252;-89
2023/11/21 13:28:46;;;;;;;4.20;2.20;;;12.60;99.90;;;;;;5046190;28;20518;-88
2023/11/21 13:31:32;;;;;;;4.50;2.80;;;12.50;99.90;;;;;;5062633;28;20435;-89
2023/11/21 13:34:46;;;;;;;6.43;2.40;;;12.40;99.90;;;;;;5063952;28;20474;-89
2023/11/21 13:37:32;;;;;;;4.10;1.77;;;12.40;99.90;;;;;;5033371;28;20487;-89
2023/11/21 13:40:22;;;;;;;2.70;1.63;;;12.40;99.90;;;;;;5042722;28;20454;-89
2023/11/21 13:43:38;;;;;;;6.53;2.17;;;12.40;99.90;;;;;;5032385;28;20851;-88
2023/11/21 13:46:24;;;;;;;10.20;2.70;;;12.40;99.90;;;;;;5040757;28;20466;-89
2023/11/21 13:49:10;;;;;;;2.83;2.00;;;12.30;99.90;;;;;;5041871;28;20819;-88
2023/11/21 13:51:56;;;;;;;4.07;2.53;;;12.40;99.90;;;;;;5034594;28;20518;-89
2023/11/21 13:54:42;;;;;;;8.60;2.67;;;12.40;99.90;;;;;;5031753;28;20443;-89
2023/11/21 13:57:29;;;;;;;4.87;2.57;;;12.40;99.90;;;;;;5030993;28;20844;-88
2023/11/21 14:00:41;;;;;;;4.40;2.80;;;12.30;99.90;;;;;;5036099;28;20443;-89
2023/11/21 14:03:39;;;;;;;7.40;3.17;;;12.20;99.90;;;;;;5033225;28;20483;-88
2023/11/21 14:06:32;;;;;;;5.00;3.23;;;12.20;99.90;;;;;;5033034;28;20484;-89
2023/11/21 14:09:22;;;;;;;9.37;4.10;;;12.10;99.90;;;;;;5037548;28;20425;-88
2023/11/21 14:12:09;;;;;;;10.17;4.27;;;12.10;99.90;;;;;;5045190;28;20439;-88
2023/11/21 14:14:55;;;;;;;13.00;4.67;;;12.10;99.90;;;;;;5037748;28;20467;-88
2023/11/21 14:17:42;;;;;;;8.83;3.70;;;12.10;99.90;;;;;;5033431;28;20443;-89
2023/11/21 14:20:29;;;;;;;9.37;4.23;;;12.00;99.90;;;;;;5035026;28;20833;-88
2023/11/21 14:23:15;;;;;;;7.63;3.40;;;12.00;99.90;;;;;;5040765;28;20490;-88
2023/11/21 14:26:01;;;;;;;5.40;3.70;;;12.00;99.90;;;;;;5034773;28;20545;-89
2023/11/21 14:28:48;;;;;;;5.73;3.40;;;12.00;99.90;;;;;;5028106;28;20421;-89
2023/11/21 14:31:34;;;;;;;8.20;4.27;;;11.90;99.90;;;;;;5026280;28;20579;-88
2023/11/21 14:34:21;;;;;;;14.90;4.60;;;11.90;99.90;;;;;;5029667;28;20450;-88
2023/11/21 14:37:07;;;;;;;11.60;4.70;;;11.90;99.90;;;;;;5029345;28;20467;-88
2023/11/21 14:39:52;;;;;;;13.83;3.40;;;11.90;99.90;;;;;;5026265;28;20456;-88
2023/11/21 14:42:42;;;;;;;9.57;3.77;;;11.90;99.90;;;;;;5032697;28;20473;-89
2023/11/21 14:45:28;;;;;;;7.40;3.30;;;11.80;99.90;;;;;;5024834;28;20446;-88
2023/11/21 14:48:16;;;;;;;6.93;3.33;;;11.80;99.90;;;;;;5025549;28;20466;-89
2023/11/21 14:54:40;;;;;;;9.07;3.97;;;11.70;99.90;;;;;;4980718;28;20438;-89
2023/11/21 14:57:31;;;;;;;12.33;5.20;;;11.60;99.90;;;;;;5027022;28;20579;-88
2023/11/21 15:03:26;;;;;;;18.70;6.60;;;11.50;99.90;;;;;;5065065;27;20567;-77
2023/11/21 15:06:26;;;;;;;8.27;3.90;;;11.50;99.90;;;;;;5065612;28;20447;-77
2023/11/21 15:09:39;;;;;;;7.20;3.70;;;11.40;99.90;;;;;;5059228;28;20443;-77
2023/11/21 15:12:26;;;;;;;7.33;5.07;;;11.40;99.90;;;;;;5071963;28;20449;-77
2023/11/21 15:15:14;;;;;;;8.00;4.70;;;11.50;99.90;;;;;;5066067;28;20648;-77
2023/11/21 15:18:00;;;;;;;10.30;5.13;;;11.40;99.90;;;;;;5066036;28;20516;-77
2023/11/21 15:20:47;;;;;;;9.50;5.00;;;11.40;99.90;;;;;;5063121;28;20469;-76
2023/11/21 15:23:34;;;;;;;12.10;6.67;;;11.40;99.90;;;;;;5064786;28;20456;-77
2023/11/21 15:26:22;;;;;;;11.00;5.70;;;11.30;99.90;;;;;;5064518;28;20412;-77
2023/11/21 15:29:07;;;;;;;11.50;5.80;;;11.30;99.90;;;;;;5061524;28;21115;-75
2023/11/21 15:31:56;;;;;;;13.17;5.07;;;11.30;99.90;;;;;;5061981;28;20848;-74
2023/11/21 15:34:41;;;;;;;11.53;5.43;;;11.30;99.90;;;;;;5061681;28;20571;-77
2023/11/21 15:37:29;;;;;;;11.93;5.33;;;11.30;99.90;;;;;;5065780;28;20473;-77
2023/11/21 15:40:16;;;;;;;11.63;4.80;;;11.20;99.90;;;;;;5069918;28;20540;-77
2023/11/21 15:43:03;;;;;;;8.97;4.70;;;11.10;99.90;;;;;;5067724;28;20501;-75
2023/11/21 15:45:48;;;;;;;13.07;4.30;;;11.10;99.90;;;;;;5067083;28;20445;-77
2023/11/21 15:48:34;;;;;;;7.07;4.63;;;11.10;99.90;;;;;;5068735;28;20930;-77
2023/11/21 15:51:20;;;;;;;10.93;5.23;;;11.00;99.90;;;;;;5066605;28;20438;-77
2023/11/21 15:54:08;;;;;;;13.80;4.37;;;10.90;99.90;;;;;;5062850;28;20449;-77
2023/11/21 15:56:57;;;;;;;8.27;4.30;;;10.90;99.90;;;;;;5061665;28;20957;-77
2023/11/21 15:59:45;;;;;;;5.27;3.80;;;10.90;99.90;;;;;;5062008;28;20477;-76
2023/11/21 16:02:31;;;;;;;6.47;3.50;;;10.90;99.90;;;;;;5063362;28;20991;-77
2023/11/21 16:05:17;;;;;;;11.20;4.20;;;10.80;99.90;;;;;;5066283;28;20926;-77
2023/11/21 16:08:03;;;;;;;8.93;3.60;;;10.80;99.90;;;;;;5063622;28;20480;-75
2023/11/21 16:10:50;;;;;;;9.30;5.20;;;10.80;99.90;;;;;;5065549;28;20473;-77
2023/11/21 16:13:36;;;;;;;11.13;5.13;;;10.70;99.90;;;;;;5057015;28;20803;-77
2023/11/21 16:16:23;;;;;;;11.50;5.20;;;10.80;99.90;;;;;;5052529;28;20453;-77
2023/11/21 16:19:08;;;;;;;17.50;5.87;;;10.80;99.90;;;;;;5045308;28;20473;-75
2023/11/21 16:21:54;;;;;;;10.97;5.60;;;10.80;99.90;;;;;;5051827;28;20580;-75
2023/11/21 16:24:39;;;;;;;10.40;5.90;;;10.80;99.90;;;;;;5052019;28;20528;-77
2023/11/21 16:27:26;;;;;;;8.30;5.70;;;10.70;99.90;;;;;;5052293;28;20966;-75
2023/11/21 16:30:13;;;;;;;12.67;6.40;;;10.70;99.90;;;;;;5048125;28;20470;-77
2023/11/21 16:32:58;;;;;;;13.70;6.03;;;10.80;99.90;;;;;;5052787;28;21009;-77
2023/11/21 16:35:47;;;;;;;9.00;5.73;;;10.80;99.90;;;;;;5045028;28;20521;-76
2023/11/21 16:38:33;;;;;;;17.60;5.30;;;10.80;99.90;;;;;;5045923;28;20609;-77